Terminal Aerodrome Forecast
Issued by NWS

Home | Current Version | Previous Version | Text Only | Print | Product List | Glossary On
Versions: 1 2 3 4 5 6 7 8 9 10 11 12 13 14 15
000
FTUS46 KPDT 021700
TAFALW
TAF
KALW 021725Z 0218/0318 22013KT P6SM SKC
     FM021900 24014G22KT P6SM FEW060
     FM030000 24017G25KT P6SM FEW060 FEW150
     FM030600 21014KT P6SM FEW060 FEW100
     FM030900 20011KT P6SM FEW060=

USA.gov is the U.S. government's official web portal to all federal, state and local government web resources and services.